Time;durP1;ratioP1;P1;durP2;ratioP2;P2;SDS_P1;SDS_P2;PMS_P1;PMS_P2;Temp;Humidity;BMP_temperature;BMP_pressure;BME280_temperature;BME280_humidity;BME280_pressure;Samples;Min_cycle;Max_cycle;Signal;HPM_P1;HPM_P2
2023/01/26 00:02:00;;;;;;;65.80;26.40;;;;;;;1.97;99.40;101057.70;106507;1272;22679;-60
2023/01/26 00:04:31;;;;;;;68.80;27.10;;;;;;;1.97;99.37;101052.59;106497;1270;24261;-60
2023/01/26 00:07:02;;;;;;;70.20;27.60;;;;;;;1.98;99.37;101049.59;106365;1262;22653;-60
2023/01/26 00:09:33;;;;;;;76.70;29.40;;;;;;;1.98;99.47;101046.30;106392;1274;25375;-60
2023/01/26 00:12:04;;;;;;;69.30;24.90;;;;;;;1.98;99.46;101049.05;106432;1277;25428;-60
2023/01/26 00:14:48;;;;;;;69.00;27.90;;;;;;;1.97;99.41;101046.21;106502;1277;22524;-60
2023/01/26 00:17:27;;;;;;;73.60;29.10;;;;;;;1.97;99.39;101044.55;106546;1274;25343;-60
2023/01/26 00:19:59;;;;;;;68.70;29.70;;;;;;;1.97;99.44;101044.09;106459;1271;25255;-60
2023/01/26 00:22:30;;;;;;;70.30;27.60;;;;;;;1.97;99.48;101040.39;106515;1262;22770;-61
2023/01/26 00:25:01;;;;;;;75.30;27.00;;;;;;;1.97;99.46;101039.52;106476;1271;25572;-60
2023/01/26 00:27:34;;;;;;;69.10;27.50;;;;;;;1.97;99.53;101042.83;106557;1270;22544;-62
2023/01/26 00:30:06;;;;;;;74.90;28.40;;;;;;;1.97;99.54;101038.02;106526;1277;24215;-60
2023/01/26 00:32:38;;;;;;;83.30;34.30;;;;;;;1.97;99.50;101037.17;106609;1277;24249;-61
2023/01/26 00:35:10;;;;;;;89.10;36.00;;;;;;;1.97;99.55;101038.50;106543;1271;24720;-61
2023/01/26 00:37:43;;;;;;;83.30;34.80;;;;;;;1.97;99.62;101035.42;106502;1277;25269;-61
2023/01/26 00:40:14;;;;;;;83.10;33.90;;;;;;;1.98;99.65;101034.10;106482;1277;23018;-60
2023/01/26 00:42:45;;;;;;;89.50;33.50;;;;;;;1.97;99.59;101032.99;106540;1277;24370;-62
2023/01/26 00:45:17;;;;;;;83.40;33.90;;;;;;;1.97;99.56;101035.75;106466;1277;26484;-62
2023/01/26 00:47:48;;;;;;;77.30;30.30;;;;;;;1.96;99.58;101032.61;106542;1277;25309;-60
2023/01/26 00:50:19;;;;;;;82.20;32.40;;;;;;;1.96;99.70;101031.04;106442;1277;25266;-62
2023/01/26 00:52:52;;;;;;;83.30;34.00;;;;;;;1.96;99.61;101033.33;106492;1262;25386;-60
2023/01/26 00:55:23;;;;;;;80.60;32.50;;;;;;;1.96;99.65;101033.95;106545;1277;24271;-60
2023/01/26 00:57:54;;;;;;;87.80;32.70;;;;;;;1.96;99.66;101034.18;106454;1277;25644;-60
2023/01/26 01:00:26;;;;;;;81.20;32.80;;;;;;;1.95;99.71;101034.18;106482;1277;22660;-61
2023/01/26 01:02:57;;;;;;;80.50;34.50;;;;;;;1.95;99.70;101032.45;106525;1270;25367;-62
2023/01/26 01:05:31;;;;;;;84.60;33.80;;;;;;;1.95;99.74;101030.95;106493;1270;23728;-62
2023/01/26 01:08:02;;;;;;;85.00;34.60;;;;;;;1.95;99.75;101029.95;106511;1273;22553;-60
2023/01/26 01:10:33;;;;;;;94.60;40.90;;;;;;;1.95;99.82;101031.52;106543;1273;23525;-60
2023/01/26 01:13:04;;;;;;;92.30;36.50;;;;;;;1.95;99.77;101030.33;106455;1277;22547;-59
2023/01/26 01:15:35;;;;;;;89.50;35.50;;;;;;;1.95;99.80;101027.98;106440;1274;22554;-59
2023/01/26 01:18:06;;;;;;;93.30;38.10;;;;;;;1.94;99.79;101027.35;106418;1270;22537;-59
2023/01/26 01:20:40;;;;;;;96.60;38.70;;;;;;;1.92;99.72;101022.48;106415;1254;22611;-62
2023/01/26 01:23:10;;;;;;;85.80;34.80;;;;;;;1.92;99.80;101020.83;106555;1261;25514;-62
2023/01/26 01:25:41;;;;;;;84.60;32.70;;;;;;;1.92;99.80;101024.30;106404;1271;22547;-60
2023/01/26 01:28:12;;;;;;;73.90;30.90;;;;;;;1.92;99.88;101022.88;106425;1277;23060;-61
2023/01/26 01:30:43;;;;;;;75.90;30.90;;;;;;;1.92;99.90;101026.58;106402;1270;22546;-61
2023/01/26 01:33:14;;;;;;;74.60;29.90;;;;;;;1.92;99.84;101024.46;106438;1277;22528;-61
2023/01/26 01:35:44;;;;;;;71.30;29.80;;;;;;;1.91;99.79;101021.23;106472;1262;22656;-60
2023/01/26 01:38:15;;;;;;;79.10;30.70;;;;;;;1.92;99.86;101025.16;106427;1271;22530;-59
2023/01/26 01:40:46;;;;;;;82.30;31.40;;;;;;;1.91;99.77;101022.96;106577;1270;22554;-60
2023/01/26 01:43:17;;;;;;;81.80;33.40;;;;;;;1.92;99.86;101018.95;106470;1277;22552;-60
2023/01/26 01:45:49;;;;;;;79.30;31.20;;;;;;;1.91;99.82;101014.77;106435;1276;23146;-60
2023/01/26 01:48:28;;;;;;;86.10;34.20;;;;;;;1.91;99.67;101006.75;106612;1277;22662;-60
2023/01/26 01:51:03;;;;;;;85.10;33.60;;;;;;;1.91;99.74;101010.92;106508;1277;25049;-61
2023/01/26 01:53:38;;;;;;;79.50;31.70;;;;;;;1.91;99.78;101008.95;106541;1277;24295;-60
2023/01/26 01:56:17;;;;;;;80.30;32.10;;;;;;;1.93;99.75;101005.80;106503;1277;22530;-60
2023/01/26 01:58:52;;;;;;;79.60;30.60;;;;;;;1.93;99.67;101002.81;106461;1277;22542;-62
2023/01/26 02:01:22;;;;;;;80.70;32.00;;;;;;;1.92;99.43;100993.70;106509;1261;22531;-61
2023/01/26 02:03:59;;;;;;;70.90;30.20;;;;;;;1.91;99.44;100985.98;106366;1272;23873;-62
2023/01/26 02:06:35;;;;;;;84.50;32.60;;;;;;;1.90;99.42;100983.32;106439;1262;25460;-60
2023/01/26 02:09:07;;;;;;;75.80;31.20;;;;;;;1.90;99.50;100979.70;106556;1277;25416;-60
2023/01/26 02:11:43;;;;;;;76.00;31.40;;;;;;;1.91;99.50;100977.80;106468;1270;22604;-60
2023/01/26 02:14:16;;;;;;;85.90;30.30;;;;;;;1.89;99.29;100973.73;106496;1271;22538;-60
2023/01/26 02:16:46;;;;;;;75.10;28.60;;;;;;;1.86;98.78;100975.16;106433;1270;22549;-59
2023/01/26 02:19:25;;;;;;;76.10;29.50;;;;;;;1.84;98.37;100972.98;106425;1261;24391;-60
2023/01/26 02:21:59;;;;;;;83.20;31.30;;;;;;;1.85;98.63;100970.22;106371;1273;25556;-61
2023/01/26 02:24:34;;;;;;;83.00;31.40;;;;;;;1.84;98.54;100971.08;106525;1277;22557;-60
2023/01/26 02:27:06;;;;;;;78.70;30.80;;;;;;;1.83;98.47;100966.84;106468;1277;23593;-61
2023/01/26 02:29:37;;;;;;;72.20;29.10;;;;;;;1.83;98.65;100965.02;106416;1277;22622;-61
2023/01/26 02:32:08;;;;;;;82.50;31.30;;;;;;;1.83;98.68;100960.23;106445;1270;24290;-60
2023/01/26 02:34:39;;;;;;;81.20;33.60;;;;;;;1.82;98.69;100955.89;106559;1261;22643;-63
2023/01/26 02:37:16;;;;;;;87.20;32.90;;;;;;;1.82;98.62;100946.23;106483;1262;25307;-60
2023/01/26 02:39:55;;;;;;;85.10;33.60;;;;;;;1.81;98.57;100942.15;106539;1277;22596;-60
2023/01/26 02:42:39;;;;;;;91.30;34.20;;;;;;;1.80;98.63;100940.66;106486;1270;22534;-60
2023/01/26 02:45:14;;;;;;;92.10;35.50;;;;;;;1.79;98.30;100939.73;106449;1271;26705;-60
2023/01/26 02:47:45;;;;;;;95.60;36.10;;;;;;;1.77;97.88;100939.19;106552;1271;24265;-62
2023/01/26 02:50:17;;;;;;;101.90;35.90;;;;;;;1.77;97.33;100929.43;106488;1271;22639;-62
2023/01/26 02:52:47;;;;;;;97.30;36.50;;;;;;;1.77;97.24;100930.15;106605;1270;22537;-62
2023/01/26 02:55:28;;;;;;;109.30;37.50;;;;;;;1.77;97.47;100926.45;106442;1277;22531;-60
2023/01/26 02:58:01;;;;;;;98.90;35.90;;;;;;;1.77;97.36;100927.47;106386;1277;22642;-60
2023/01/26 03:00:35;;;;;;;106.90;39.20;;;;;;;1.77;97.25;100924.55;106495;1273;26103;-60
2023/01/26 03:03:12;;;;;;;91.00;37.10;;;;;;;1.77;97.16;100924.09;106517;1270;25383;-60
2023/01/26 03:05:43;;;;;;;96.00;35.70;;;;;;;1.76;97.05;100922.13;106459;1277;24219;-69
2023/01/26 03:08:14;;;;;;;88.10;33.50;;;;;;;1.76;96.84;100915.84;106400;1262;25356;-60
2023/01/26 03:10:46;;;;;;;101.50;36.00;;;;;;;1.76;96.67;100915.36;106502;1277;22608;-62
2023/01/26 03:13:17;;;;;;;93.20;34.70;;;;;;;1.76;96.36;100911.98;106549;1274;22537;-62
2023/01/26 03:15:51;;;;;;;105.40;37.30;;;;;;;1.75;96.33;100909.63;106444;1274;22544;-60
2023/01/26 03:29:39;;;;;;;107.60;40.00;;;;;;;1.77;96.80;100892.08;106425;1277;25088;-60
2023/01/26 03:32:10;;;;;;;124.50;44.00;;;;;;;1.76;96.78;100886.11;106440;1262;24234;-62
2023/01/26 03:34:41;;;;;;;134.40;45.80;;;;;;;1.76;96.72;100883.27;106419;1271;23277;-61
2023/01/26 03:37:12;;;;;;;110.60;40.90;;;;;;;1.77;96.48;100881.62;106450;1277;25510;-60
2023/01/26 03:56:37;;;;;;;107.70;37.60;;;;;;;1.72;96.74;100865.22;106468;1270;24277;-59
2023/01/26 03:59:09;;;;;;;104.60;37.50;;;;;;;1.71;96.68;100864.36;106422;1273;250527;-60
2023/01/26 04:10:09;;;;;;;81.50;33.10;;;;;;;1.67;96.15;100863.29;106328;1274;22536;-61
2023/01/26 04:12:40;;;;;;;76.90;31.10;;;;;;;1.64;95.76;100865.64;106772;1277;22537;-61
2023/01/26 04:23:42;;;;;;;80.50;30.90;;;;;;;1.65;95.65;100860.68;106457;1277;24258;-60
2023/01/26 04:26:12;;;;;;;85.40;33.80;;;;;;;1.65;95.78;100858.19;106424;1274;24247;-59
2023/01/26 04:28:43;;;;;;;82.70;33.80;;;;;;;1.63;95.61;100857.41;106424;1273;22526;-60
2023/01/26 04:31:15;;;;;;;84.30;32.70;;;;;;;1.63;95.83;100858.29;106403;1274;25297;-62
2023/01/26 04:33:46;;;;;;;80.10;31.50;;;;;;;1.62;95.99;100858.92;106493;1270;23076;-58
2023/01/26 04:36:17;;;;;;;83.90;32.60;;;;;;;1.62;96.02;100860.40;106622;1262;24244;-59
2023/01/26 04:38:49;;;;;;;91.00;35.60;;;;;;;1.61;95.70;100853.17;106499;1277;24213;-59
2023/01/26 04:41:20;;;;;;;86.60;33.90;;;;;;;1.60;95.67;100849.57;106453;1262;24588;-60
2023/01/26 04:43:51;;;;;;;85.30;33.40;;;;;;;1.60;95.77;100844.39;106326;1261;22539;-61
2023/01/26 04:46:22;;;;;;;85.10;32.60;;;;;;;1.59;95.65;100840.38;106391;1259;22554;-59
2023/01/26 04:48:53;;;;;;;85.50;35.10;;;;;;;1.59;95.57;100837.86;106545;1277;24401;-60
2023/01/26 04:51:24;;;;;;;88.30;32.50;;;;;;;1.58;95.62;100833.39;106481;1272;22611;-59
2023/01/26 04:53:56;;;;;;;82.00;32.60;;;;;;;1.59;95.39;100830.70;106716;1277;25576;-59
2023/01/26 04:56:29;;;;;;;90.40;34.90;;;;;;;1.58;95.58;100823.08;106754;1272;25530;-60
2023/01/26 04:59:04;;;;;;;80.60;32.90;;;;;;;1.59;95.77;100822.84;106397;1277;24251;-60
2023/01/26 05:01:35;;;;;;;83.10;33.10;;;;;;;1.61;95.62;100824.73;106477;1274;25403;-60
2023/01/26 05:04:07;;;;;;;83.90;32.50;;;;;;;1.60;95.60;100821.50;106497;1269;24495;-60
2023/01/26 05:06:38;;;;;;;82.40;32.70;;;;;;;1.61;95.51;100828.48;106461;1274;22579;-62
2023/01/26 05:09:09;;;;;;;78.50;32.20;;;;;;;1.60;95.46;100826.36;106452;1271;22527;-61
2023/01/26 05:11:40;;;;;;;88.40;34.50;;;;;;;1.62;95.69;100824.63;106448;1277;22523;-60
2023/01/26 05:14:10;;;;;;;70.80;32.10;;;;;;;1.63;95.66;100822.02;106446;1262;22579;-62
2023/01/26 05:16:41;;;;;;;78.50;31.50;;;;;;;1.61;95.47;100821.41;106465;1271;23147;-60
2023/01/26 05:19:12;;;;;;;78.10;30.80;;;;;;;1.60;95.17;100822.29;106514;1277;24162;-61
2023/01/26 05:21:43;;;;;;;76.90;33.00;;;;;;;1.60;95.16;100824.33;106456;1262;24337;-61
2023/01/26 05:24:14;;;;;;;81.20;33.20;;;;;;;1.61;95.17;100821.02;106459;1277;22583;-63
2023/01/26 05:26:45;;;;;;;75.90;32.80;;;;;;;1.61;95.41;100821.64;106662;1277;22612;-61
2023/01/26 05:29:16;;;;;;;75.20;32.60;;;;;;;1.62;95.33;100819.91;106498;1277;22577;-62
2023/01/26 05:31:47;;;;;;;84.40;35.30;;;;;;;1.59;94.97;100817.88;106452;1264;22530;-62
2023/01/26 05:34:18;;;;;;;78.70;33.40;;;;;;;1.57;94.83;100814.20;106408;1277;22534;-61
2023/01/26 05:36:49;;;;;;;74.90;32.10;;;;;;;1.56;95.14;100814.45;106241;1274;22548;-60
2023/01/26 05:39:19;;;;;;;73.20;32.80;;;;;;;1.55;94.92;100811.07;106332;1262;22548;-61
2023/01/26 05:41:50;;;;;;;77.00;34.90;;;;;;;1.53;94.80;100816.75;106407;1277;26811;-61
2023/01/26 05:44:21;;;;;;;75.50;32.00;;;;;;;1.53;94.87;100816.05;106451;1258;22592;-63
2023/01/26 05:46:52;;;;;;;72.90;31.10;;;;;;;1.52;94.95;100820.46;106424;1274;25298;-60
2023/01/26 05:49:23;;;;;;;80.10;36.00;;;;;;;1.51;94.97;100819.44;106475;1270;25453;-60
2023/01/26 05:51:54;;;;;;;78.20;35.20;;;;;;;1.51;94.91;100821.26;106305;1273;22574;-59
2023/01/26 05:54:25;;;;;;;85.30;35.60;;;;;;;1.50;94.93;100818.67;106402;1262;25314;-60
2023/01/26 05:56:56;;;;;;;77.90;33.40;;;;;;;1.48;94.87;100819.31;106464;1255;22666;-60
2023/01/26 05:59:27;;;;;;;71.60;31.40;;;;;;;1.47;94.58;100816.40;106454;1271;24442;-61
2023/01/26 06:01:59;;;;;;;75.00;32.50;;;;;;;1.45;94.36;100811.92;106464;1271;24353;-61
2023/01/26 06:04:30;;;;;;;71.50;31.50;;;;;;;1.44;94.27;100812.81;108656;1271;22547;-61
2023/01/26 06:07:01;;;;;;;75.30;31.80;;;;;;;1.43;94.03;100809.11;106490;1271;22646;-61
2023/01/26 06:09:33;;;;;;;73.80;30.90;;;;;;;1.41;94.11;100808.02;106456;1272;22532;-61
2023/01/26 06:12:04;;;;;;;75.00;31.40;;;;;;;1.40;94.20;100804.11;106593;1277;22530;-61
2023/01/26 06:14:35;;;;;;;74.90;32.30;;;;;;;1.40;94.33;100801.37;106487;1277;24253;-62
2023/01/26 06:17:05;;;;;;;67.00;33.30;;;;;;;1.39;94.15;100801.60;106511;1277;24390;-63
2023/01/26 06:19:36;;;;;;;75.30;31.90;;;;;;;1.37;94.11;100798.93;106402;1274;22642;-61
2023/01/26 06:22:09;;;;;;;74.50;32.50;;;;;;;1.37;94.23;100792.26;106481;1273;24280;-61
2023/01/26 06:24:40;;;;;;;71.20;31.50;;;;;;;1.36;94.27;100797.70;106561;1269;22587;-59
2023/01/26 06:27:14;;;;;;;73.20;33.00;;;;;;;1.33;94.16;100793.48;106511;1277;25421;-61
2023/01/26 06:29:45;;;;;;;75.40;34.90;;;;;;;1.33;94.30;100793.46;106540;1277;22662;-60
2023/01/26 06:32:16;;;;;;;84.40;37.10;;;;;;;1.32;94.48;100794.50;106548;1277;26082;-61
2023/01/26 06:34:47;;;;;;;96.80;42.60;;;;;;;1.33;94.54;100793.70;106511;1277;24253;-62
2023/01/26 06:37:18;;;;;;;91.30;39.60;;;;;;;1.33;94.51;100798.42;106468;1273;23619;-61
2023/01/26 06:39:49;;;;;;;78.00;34.50;;;;;;;1.34;94.65;100803.45;106352;1270;22537;-63
2023/01/26 06:42:19;;;;;;;85.70;38.80;;;;;;;1.31;94.43;100808.17;106466;1277;23165;-63
2023/01/26 06:44:50;;;;;;;90.10;41.10;;;;;;;1.31;94.47;100804.56;106369;1277;22600;-61
2023/01/26 06:47:21;;;;;;;83.40;36.20;;;;;;;1.32;94.65;100804.63;106484;1277;25386;-61
2023/01/26 06:49:52;;;;;;;76.40;35.90;;;;;;;1.31;94.60;100804.17;106381;1268;25453;-60
2023/01/26 06:52:32;;;;;;;87.80;38.00;;;;;;;1.30;94.50;100804.25;106494;1277;22583;-61
2023/01/26 06:55:03;;;;;;;82.30;36.40;;;;;;;1.30;94.68;100800.64;106508;1275;26107;-61
2023/01/26 06:57:34;;;;;;;84.60;38.10;;;;;;;1.31;94.73;100804.48;106521;1268;23016;-61
2023/01/26 07:00:07;;;;;;;80.60;35.60;;;;;;;1.31;94.76;100805.59;106465;1277;22613;-60
2023/01/26 07:02:38;;;;;;;88.90;36.70;;;;;;;1.31;94.78;100808.25;106611;1277;22665;-62
2023/01/26 07:05:10;;;;;;;82.40;37.10;;;;;;;1.33;94.71;100807.70;106423;1277;22525;-62
2023/01/26 07:07:40;;;;;;;83.90;37.60;;;;;;;1.32;94.68;100807.23;106665;1262;24245;-61
2023/01/26 07:10:13;;;;;;;88.10;36.70;;;;;;;1.30;94.44;100811.02;106683;1274;25347;-62
2023/01/26 07:12:45;;;;;;;86.60;36.80;;;;;;;1.30;94.37;100810.46;106581;1277;22537;-61
2023/01/26 07:15:16;;;;;;;81.90;37.40;;;;;;;1.31;94.48;100808.65;106569;1277;22652;-63
2023/01/26 07:17:47;;;;;;;76.20;36.10;;;;;;;1.32;94.57;100809.66;106597;1277;23031;-61
2023/01/26 07:20:19;;;;;;;79.80;35.80;;;;;;;1.32;94.27;100811.55;106531;1274;22579;-62
2023/01/26 07:22:50;;;;;;;83.20;37.70;;;;;;;1.30;94.28;100814.08;106521;1269;25386;-62
2023/01/26 07:25:21;;;;;;;75.80;35.40;;;;;;;1.30;94.29;100816.27;106440;1277;22611;-61
2023/01/26 07:27:57;;;;;;;78.30;35.10;;;;;;;1.31;94.15;100811.17;106380;1277;22588;-60
2023/01/26 07:30:28;;;;;;;78.90;36.50;;;;;;;1.30;94.28;100806.85;106490;1263;25389;-62
2023/01/26 07:33:00;;;;;;;73.70;34.70;;;;;;;1.31;94.27;100807.78;106624;1277;25018;-62
2023/01/26 07:35:31;;;;;;;77.50;36.50;;;;;;;1.31;94.31;100807.78;106623;1273;25266;-62
2023/01/26 07:38:03;;;;;;;84.80;37.00;;;;;;;1.31;94.36;100805.66;106491;1277;24255;-61
2023/01/26 07:40:34;;;;;;;73.30;34.60;;;;;;;1.31;94.31;100803.47;106458;1272;25454;-61
2023/01/26 07:43:05;;;;;;;77.60;37.40;;;;;;;1.30;94.15;100800.02;106500;1277;22583;-62
2023/01/26 07:45:37;;;;;;;84.30;36.10;;;;;;;1.29;94.05;100797.11;106443;1277;22529;-60
2023/01/26 07:48:09;;;;;;;75.00;35.70;;;;;;;1.28;93.96;100788.23;106482;1272;22530;-61
2023/01/26 07:50:40;;;;;;;83.00;37.90;;;;;;;1.27;93.92;100792.95;106496;1277;22660;-61
2023/01/26 07:53:11;;;;;;;74.30;34.80;;;;;;;1.27;94.11;100792.24;106499;1272;24449;-61
2023/01/26 07:55:43;;;;;;;71.90;34.90;;;;;;;1.29;94.17;100793.95;106516;1271;22590;-61
2023/01/26 07:58:14;;;;;;;73.90;33.60;;;;;;;1.30;94.09;100795.53;106410;1269;22579;-61
2023/01/26 08:00:46;;;;;;;78.00;37.10;;;;;;;1.30;93.88;100796.95;106476;1272;22529;-62
2023/01/26 08:03:17;;;;;;;77.10;36.40;;;;;;;1.32;93.96;100796.70;106480;1277;24243;-61
2023/01/26 08:05:48;;;;;;;77.20;37.30;;;;;;;1.32;94.00;100797.10;106515;1277;24235;-61
2023/01/26 08:08:19;;;;;;;71.30;34.40;;;;;;;1.32;94.06;100797.02;106467;1275;22636;-63
2023/01/26 08:10:49;;;;;;;67.10;31.30;;;;;;;1.33;94.11;100797.16;106499;1262;22538;-61
2023/01/26 08:13:20;;;;;;;63.10;31.00;;;;;;;1.35;94.18;100791.58;106487;1277;22529;-62
2023/01/26 08:15:51;;;;;;;64.10;30.70;;;;;;;1.37;94.01;100786.05;106354;1277;24367;-60
2023/01/26 08:18:22;;;;;;;66.30;30.80;;;;;;;1.37;93.86;100790.85;106513;1277;22529;-61
2023/01/26 08:20:54;;;;;;;61.10;29.50;;;;;;;1.40;93.85;100791.30;106355;1275;25926;-61
2023/01/26 08:23:25;;;;;;;58.30;24.80;;;;;;;1.40;93.81;100791.05;106724;1274;22547;-61
2023/01/26 08:26:00;;;;;;;64.90;30.20;;;;;;;1.39;93.35;100793.97;106658;1269;22548;-63
2023/01/26 08:28:31;;;;;;;67.00;29.50;;;;;;;1.40;93.28;100795.86;106483;1274;22548;-61
2023/01/26 08:31:07;;;;;;;64.10;30.80;;;;;;;1.41;93.34;100794.91;106551;1277;22534;-61
2023/01/26 08:33:39;;;;;;;75.70;32.70;;;;;;;1.44;93.40;100797.48;106624;1277;26041;-63
2023/01/26 08:36:14;;;;;;;81.20;35.60;;;;;;;1.46;93.29;100798.88;106676;1277;22604;-62
2023/01/26 08:38:45;;;;;;;93.50;38.20;;;;;;;1.46;93.36;100794.64;106552;1277;22542;-61
2023/01/26 08:41:16;;;;;;;89.00;39.30;;;;;;;1.47;93.38;100795.80;106525;1277;24868;-61
2023/01/26 08:43:47;;;;;;;101.40;47.30;;;;;;;1.48;93.29;100792.65;106482;1277;25543;-61
2023/01/26 08:46:18;;;;;;;116.60;59.80;;;;;;;1.51;93.55;100794.84;106479;1277;22550;-62
2023/01/26 08:48:49;;;;;;;115.40;61.90;;;;;;;1.52;93.38;100798.04;106310;1259;24481;-61
2023/01/26 08:51:20;;;;;;;99.70;53.70;;;;;;;1.53;93.41;100799.30;106464;1262;22600;-62
2023/01/26 08:53:53;;;;;;;91.60;47.80;;;;;;;1.56;93.31;100798.73;106490;1277;22529;-62
2023/01/26 08:56:24;;;;;;;81.00;39.50;;;;;;;1.55;92.99;100802.12;106600;1272;24608;-62
2023/01/26 08:58:54;;;;;;;76.80;36.10;;;;;;;1.54;93.13;100801.73;106559;1262;24218;-59
2023/01/26 09:01:25;;;;;;;70.80;36.20;;;;;;;1.56;93.09;100804.39;106742;1270;24194;-58
2023/01/26 09:03:57;;;;;;;81.20;36.80;;;;;;;1.57;93.13;100809.11;106754;1269;22538;-61
2023/01/26 09:06:29;;;;;;;77.80;36.40;;;;;;;1.57;92.91;100811.94;106929;1277;24245;-61
2023/01/26 09:09:00;;;;;;;63.40;30.10;;;;;;;1.57;92.84;100817.77;106879;1277;22624;-62
2023/01/26 09:11:31;;;;;;;66.50;27.70;;;;;;;1.54;92.50;100813.05;106761;1277;22534;-60
2023/01/26 09:14:02;;;;;;;58.10;25.20;;;;;;;1.53;92.59;100812.27;106787;1277;22534;-61
2023/01/26 09:16:33;;;;;;;60.70;26.40;;;;;;;1.52;92.43;100813.61;106755;1275;22540;-61
2023/01/26 09:19:04;;;;;;;58.80;26.40;;;;;;;1.53;92.43;100810.55;106722;1277;25450;-60
2023/01/26 09:21:34;;;;;;;60.60;26.60;;;;;;;1.54;92.65;100805.91;106734;1277;22676;-61
2023/01/26 09:24:06;;;;;;;59.40;27.60;;;;;;;1.54;92.49;100805.11;106763;1277;22531;-61
2023/01/26 09:26:37;;;;;;;62.10;27.70;;;;;;;1.56;92.57;100805.56;106929;1277;22529;-61
2023/01/26 09:29:08;;;;;;;67.20;28.00;;;;;;;1.57;92.59;100804.23;106808;1274;22530;-61
2023/01/26 09:31:39;;;;;;;67.80;27.50;;;;;;;1.58;92.74;100802.88;106747;1275;24187;-59
2023/01/26 09:34:10;;;;;;;66.20;29.20;;;;;;;1.60;92.52;100800.58;106812;1274;22537;-60
2023/01/26 09:36:41;;;;;;;66.50;29.30;;;;;;;1.61;92.57;100791.93;106784;1277;22538;-62
2023/01/26 09:39:12;;;;;;;79.30;34.10;;;;;;;1.61;92.48;100789.34;106783;1271;22743;-61
2023/01/26 09:42:03;;;;;;;80.10;35.20;;;;;;;1.63;92.53;100791.99;106768;1277;25303;-62
2023/01/26 09:44:43;;;;;;;83.60;33.90;;;;;;;1.65;92.60;100795.90;106932;1277;25481;-62
2023/01/26 09:47:21;;;;;;;105.90;40.70;;;;;;;1.68;92.96;100793.84;106737;1274;24308;-59
2023/01/26 09:49:59;;;;;;;88.30;36.30;;;;;;;1.74;92.69;100790.48;106779;1271;22538;-61
2023/01/26 09:52:33;;;;;;;67.20;28.50;;;;;;;1.76;92.48;100782.45;106896;1277;22594;-61
2023/01/26 09:55:12;;;;;;;77.00;32.30;;;;;;;1.76;92.08;100777.66;106755;1275;25378;-60
2023/01/26 09:57:48;;;;;;;74.20;31.40;;;;;;;1.77;92.11;100782.29;106738;1263;22988;-61
2023/01/26 10:00:26;;;;;;;65.50;31.30;;;;;;;1.79;92.34;100781.65;106755;1277;22655;-62
2023/01/26 10:03:12;;;;;;;58.40;26.00;;;;;;;1.82;92.13;100781.21;106850;1271;22471;-62
2023/01/26 10:05:47;;;;;;;66.20;30.20;;;;;;;1.84;92.49;100778.75;106671;1277;22527;-61
2023/01/26 10:08:22;;;;;;;59.70;26.40;;;;;;;1.87;92.20;100771.10;106685;1262;24202;-61
2023/01/26 10:10:57;;;;;;;90.70;35.70;;;;;;;1.87;91.98;100768.50;106720;1266;24241;-62
2023/01/26 10:13:29;;;;;;;63.80;28.30;;;;;;;1.88;91.87;100769.52;106835;1277;22682;-62
2023/01/26 10:16:05;;;;;;;58.10;23.60;;;;;;;1.87;91.57;100763.40;106902;1272;22544;-60
2023/01/26 10:18:43;;;;;;;55.00;24.60;;;;;;;1.87;91.63;100759.63;106719;1276;25459;-62
2023/01/26 10:21:15;;;;;;;55.10;24.60;;;;;;;1.90;91.74;100764.64;106731;1277;26553;-63
2023/01/26 10:23:50;;;;;;;58.40;28.30;;;;;;;1.92;91.73;100767.83;106841;1277;24252;-61
2023/01/26 10:26:22;;;;;;;59.00;27.80;;;;;;;1.95;91.88;100758.98;106684;1277;22536;-66
2023/01/26 10:28:54;;;;;;;61.40;27.10;;;;;;;1.97;91.34;100754.26;107220;1276;22543;-61
2023/01/26 10:31:28;;;;;;;62.70;29.80;;;;;;;1.99;91.22;100749.36;106624;1262;22532;-59
2023/01/26 10:34:02;;;;;;;65.20;30.00;;;;;;;2.01;91.53;100747.52;106657;1262;24088;-60
2023/01/26 10:36:33;;;;;;;67.40;31.80;;;;;;;2.06;91.49;100754.31;106730;1269;22530;-62
2023/01/26 10:39:07;;;;;;;66.30;32.50;;;;;;;2.08;91.08;100752.25;106652;1277;23031;-62
2023/01/26 10:41:38;;;;;;;64.20;30.30;;;;;;;2.10;91.07;100751.52;106763;1277;26616;-61
2023/01/26 10:44:25;;;;;;;67.60;32.80;;;;;;;2.12;90.99;100749.46;106737;1277;24227;-64
2023/01/26 10:47:14;;;;;;;65.00;29.80;;;;;;;2.15;90.91;100752.25;106671;1270;24217;-61
2023/01/26 10:49:46;;;;;;;69.60;29.60;;;;;;;2.15;90.91;100756.73;106538;1277;23301;-61
2023/01/26 10:52:21;;;;;;;67.00;28.40;;;;;;;2.17;90.94;100759.63;106650;1275;22538;-60
2023/01/26 10:55:09;;;;;;;61.60;27.00;;;;;;;2.16;90.25;100758.30;106448;1277;25398;-61
2023/01/26 10:57:42;;;;;;;72.50;32.00;;;;;;;2.11;89.98;100756.94;106570;1277;25350;-62
2023/01/26 11:00:27;;;;;;;88.90;36.80;;;;;;;2.10;90.11;100752.77;106578;1272;22530;-63
2023/01/26 11:03:05;;;;;;;91.90;37.90;;;;;;;2.11;90.30;100753.71;106548;1277;22520;-63
2023/01/26 11:05:35;;;;;;;99.20;40.10;;;;;;;2.12;90.35;100753.55;106517;1272;22531;-67
2023/01/26 11:08:34;;;;;;;80.20;34.60;;;;;;;2.13;90.37;100756.36;106479;1270;25836;-62
2023/01/26 11:11:21;;;;;;;97.30;41.20;;;;;;;2.13;90.04;100752.19;106432;1270;23886;-62
2023/01/26 11:14:10;;;;;;;90.30;39.60;;;;;;;2.12;89.94;100750.25;106506;1277;22545;-64
2023/01/26 11:16:45;;;;;;;69.50;30.90;;;;;;;2.16;90.63;100745.64;106679;1268;22550;-62
2023/01/26 11:19:28;;;;;;;64.70;28.20;;;;;;;2.20;90.64;100739.94;106580;1270;25398;-62
2023/01/26 11:22:05;;;;;;;69.70;30.30;;;;;;;2.21;90.00;100731.50;106484;1270;22533;-62
2023/01/26 11:24:42;;;;;;;60.80;27.50;;;;;;;2.23;90.14;100721.89;106733;1269;22563;-62
2023/01/26 11:27:28;;;;;;;62.70;28.40;;;;;;;2.22;89.56;100718.66;106624;1272;22715;-62
2023/01/26 11:30:18;;;;;;;60.90;28.10;;;;;;;2.21;89.01;100714.50;106558;1277;24642;-61
2023/01/26 11:32:57;;;;;;;68.20;30.40;;;;;;;2.16;88.95;100713.13;106544;1277;23932;-60
2023/01/26 11:35:37;;;;;;;58.00;24.80;;;;;;;2.14;89.03;100713.00;106519;1274;22536;-63
2023/01/26 11:38:22;;;;;;;67.90;29.10;;;;;;;2.11;88.84;100713.74;106560;1274;23959;-62
2023/01/26 11:41:05;;;;;;;65.20;28.90;;;;;;;2.11;89.34;100713.58;106582;1262;25582;-60
2023/01/26 11:44:02;;;;;;;61.50;26.40;;;;;;;2.11;88.77;100709.02;106610;1274;25459;-60
2023/01/26 11:47:04;;;;;;;68.60;28.20;;;;;;;2.12;89.41;100709.34;106817;1276;22537;-61
2023/01/26 11:49:51;;;;;;;64.50;28.10;;;;;;;2.12;89.00;100703.96;106231;1279;22545;-62
2023/01/26 11:52:32;;;;;;;68.90;29.60;;;;;;;2.09;88.74;100703.37;106073;1280;22547;-61
2023/01/26 11:55:24;;;;;;;66.10;29.90;;;;;;;2.11;89.32;100699.81;106089;1276;25396;-62
2023/01/26 11:58:20;;;;;;;66.60;31.30;;;;;;;2.15;89.33;100700.02;106088;1278;22542;-61
2023/01/26 12:00:56;;;;;;;61.20;26.50;;;;;;;2.17;89.16;100699.19;105929;1279;22547;-61
2023/01/26 12:03:39;;;;;;;72.50;34.00;;;;;;;2.16;89.00;100698.58;106001;1281;24284;-60
2023/01/26 12:06:18;;;;;;;63.00;30.30;;;;;;;2.15;88.81;100693.08;106078;1283;22536;-62
2023/01/26 12:08:56;;;;;;;92.30;43.00;;;;;;;2.13;88.91;100687.27;106080;1283;22752;-60
2023/01/26 12:11:33;;;;;;;82.10;39.10;;;;;;;2.10;89.00;100680.61;106032;1276;22543;-61
2023/01/26 12:14:12;;;;;;;70.30;31.80;;;;;;;2.08;89.08;100678.30;106132;1280;22543;-61
2023/01/26 12:16:53;;;;;;;64.30;28.20;;;;;;;2.04;89.09;100678.18;106127;1280;22556;-62
2023/01/26 12:19:38;;;;;;;66.80;30.50;;;;;;;2.01;89.05;100682.94;106072;1278;22543;-60
2023/01/26 12:22:15;;;;;;;92.70;40.50;;;;;;;1.98;88.99;100677.77;106105;1283;22555;-61
2023/01/26 12:24:52;;;;;;;76.80;33.10;;;;;;;1.96;89.07;100677.33;106091;1283;25368;-61